sensor_id;sensor_type;location;lat;lon;timestamp;temperature;humidity
53675;DHT22;39574;50.534;8.500;2023-02-28T00:04:13;2.4;99.9
53675;DHT22;39574;50.534;8.500;2023-02-28T00:13:44;2.3;99.9
53675;DHT22;39574;50.534;8.500;2023-02-28T00:18:43;2.0;99.9
53675;DHT22;39574;50.534;8.500;2023-02-28T00:23:57;1.8;99.9
53675;DHT22;39574;50.534;8.500;2023-02-28T00:29:09;1.8;99.9
53675;DHT22;39574;50.534;8.500;2023-02-28T00:38:45;1.8;99.9
53675;DHT22;39574;50.534;8.500;2023-02-28T00:43:51;1.8;99.9
53675;DHT22;39574;50.534;8.500;2023-02-28T00:49:05;1.9;99.9
53675;DHT22;39574;50.534;8.500;2023-02-28T00:58:11;2.0;99.9
53675;DHT22;39574;50.534;8.500;2023-02-28T01:03:28;2.0;99.9
53675;DHT22;39574;50.534;8.500;2023-02-28T01:08:42;2.1;99.9
53675;DHT22;39574;50.534;8.500;2023-02-28T01:13:44;2.1;99.9
53675;DHT22;39574;50.534;8.500;2023-02-28T01:18:56;1.9;99.9
53675;DHT22;39574;50.534;8.500;2023-02-28T01:28:13;1.6;99.9
53675;DHT22;39574;50.534;8.500;2023-02-28T01:33:26;1.5;99.9
53675;DHT22;39574;50.534;8.500;2023-02-28T01:38:31;1.2;99.9
53675;DHT22;39574;50.534;8.500;2023-02-28T01:43:53;1.0;99.9
53675;DHT22;39574;50.534;8.500;2023-02-28T01:53:12;0.9;99.9
53675;DHT22;39574;50.534;8.500;2023-02-28T01:58:23;0.8;99.9
53675;DHT22;39574;50.534;8.500;2023-02-28T02:03:27;0.9;99.9
53675;DHT22;39574;50.534;8.500;2023-02-28T02:08:42;0.9;99.9
53675;DHT22;39574;50.534;8.500;2023-02-28T02:18:20;0.9;99.9
53675;DHT22;39574;50.534;8.500;2023-02-28T02:23:24;1.0;99.9
53675;DHT22;39574;50.534;8.500;2023-02-28T02:29:16;1.1;99.9
53675;DHT22;39574;50.534;8.500;2023-02-28T02:34:40;1.1;99.9
53675;DHT22;39574;50.534;8.500;2023-02-28T02:43:13;1.3;99.9
53675;DHT22;39574;50.534;8.500;2023-02-28T02:48:25;1.4;99.9
53675;DHT22;39574;50.534;8.500;2023-02-28T02:53:30;1.4;99.9
53675;DHT22;39574;50.534;8.500;2023-02-28T03:02:54;1.3;99.9
53675;DHT22;39574;50.534;8.500;2023-02-28T03:08:04;1.2;99.9
53675;DHT22;39574;50.534;8.500;2023-02-28T03:13:11;1.1;99.9
53675;DHT22;39574;50.534;8.500;2023-02-28T03:18:19;1.0;99.9
53675;DHT22;39574;50.534;8.500;2023-02-28T03:23:20;0.9;99.9
53675;DHT22;39574;50.534;8.500;2023-02-28T03:32:47;0.8;99.9
53675;DHT22;39574;50.534;8.500;2023-02-28T03:37:54;0.8;99.9
53675;DHT22;39574;50.534;8.500;2023-02-28T03:42:59;0.9;99.9
53675;DHT22;39574;50.534;8.500;2023-02-28T03:48:12;1.0;99.9
53675;DHT22;39574;50.534;8.500;2023-02-28T03:57:18;1.0;99.9
53675;DHT22;39574;50.534;8.500;2023-02-28T04:02:36;1.0;99.9
53675;DHT22;39574;50.534;8.500;2023-02-28T04:07:38;1.1;99.9
53675;DHT22;39574;50.534;8.500;2023-02-28T04:12:50;1.2;99.9
53675;DHT22;39574;50.534;8.500;2023-02-28T04:18:02;1.2;99.9
53675;DHT22;39574;50.534;8.500;2023-02-28T04:27:30;1.0;99.9
53675;DHT22;39574;50.534;8.500;2023-02-28T04:32:42;0.8;99.9
53675;DHT22;39574;50.534;8.500;2023-02-28T04:37:54;0.5;99.9
53675;DHT22;39574;50.534;8.500;2023-02-28T04:47:23;0.4;99.9
53675;DHT22;39574;50.534;8.500;2023-02-28T04:52:32;0.3;99.9
53675;DHT22;39574;50.534;8.500;2023-02-28T04:57:32;0.4;99.9
53675;DHT22;39574;50.534;8.500;2023-02-28T05:02:39;0.4;99.9
53675;DHT22;39574;50.534;8.500;2023-02-28T05:07:47;0.5;99.9
53675;DHT22;39574;50.534;8.500;2023-02-28T05:17:14;0.7;99.9
53675;DHT22;39574;50.534;8.500;2023-02-28T05:22:23;0.6;99.9
53675;DHT22;39574;50.534;8.500;2023-02-28T05:27:29;0.5;99.9
53675;DHT22;39574;50.534;8.500;2023-02-28T05:32:41;0.3;99.9
53675;DHT22;39574;50.534;8.500;2023-02-28T05:41:57;0.3;99.9
53675;DHT22;39574;50.534;8.500;2023-02-28T05:47:15;0.2;99.9
53675;DHT22;39574;50.534;8.500;2023-02-28T05:52:29;0.2;99.9
53675;DHT22;39574;50.534;8.500;2023-02-28T06:01:45;0.3;99.9
53675;DHT22;39574;50.534;8.500;2023-02-28T06:06:56;0.3;99.9
53675;DHT22;39574;50.534;8.500;2023-02-28T06:11:59;0.3;99.9
53675;DHT22;39574;50.534;8.500;2023-02-28T06:16:59;0.5;99.9
53675;DHT22;39574;50.534;8.500;2023-02-28T06:22:07;0.5;99.9
53675;DHT22;39574;50.534;8.500;2023-02-28T06:27:20;0.5;99.9
53675;DHT22;39574;50.534;8.500;2023-02-28T06:32:25;0.6;99.9
53675;DHT22;39574;50.534;8.500;2023-02-28T06:41:41;0.7;99.9
53675;DHT22;39574;50.534;8.500;2023-02-28T06:46:47;0.7;99.9
53675;DHT22;39574;50.534;8.500;2023-02-28T06:51:48;0.7;99.9
53675;DHT22;39574;50.534;8.500;2023-02-28T06:56:57;0.8;99.9
53675;DHT22;39574;50.534;8.500;2023-02-28T07:01:58;0.8;99.9
53675;DHT22;39574;50.534;8.500;2023-02-28T07:07:11;0.8;99.9
53675;DHT22;39574;50.534;8.500;2023-02-28T07:16:36;0.9;99.9
53675;DHT22;39574;50.534;8.500;2023-02-28T07:21:38;1.0;99.9
53675;DHT22;39574;50.534;8.500;2023-02-28T07:26:51;1.1;99.9
53675;DHT22;39574;50.534;8.500;2023-02-28T07:32:04;1.1;99.9
53675;DHT22;39574;50.534;8.500;2023-02-28T07:37:05;1.1;99.9
53675;DHT22;39574;50.534;8.500;2023-02-28T07:46:42;1.2;99.9
53675;DHT22;39574;50.534;8.500;2023-02-28T07:51:46;1.2;99.9
53675;DHT22;39574;50.534;8.500;2023-02-28T07:57:00;1.1;99.9
53675;DHT22;39574;50.534;8.500;2023-02-28T08:06:32;1.1;99.9
53675;DHT22;39574;50.534;8.500;2023-02-28T08:11:38;1.2;99.9
53675;DHT22;39574;50.534;8.500;2023-02-28T08:16:52;1.3;99.9
53675;DHT22;39574;50.534;8.500;2023-02-28T08:26:30;1.5;99.9
53675;DHT22;39574;50.534;8.500;2023-02-28T08:31:31;1.8;99.9
53675;DHT22;39574;50.534;8.500;2023-02-28T08:36:31;2.0;99.9
53675;DHT22;39574;50.534;8.500;2023-02-28T08:41:41;2.3;99.9
53675;DHT22;39574;50.534;8.500;2023-02-28T08:51:26;2.6;99.9
53675;DHT22;39574;50.534;8.500;2023-02-28T08:56:27;2.8;99.9
53675;DHT22;39574;50.534;8.500;2023-02-28T09:01:28;3.1;99.9
53675;DHT22;39574;50.534;8.500;2023-02-28T09:06:30;3.4;99.9
53675;DHT22;39574;50.534;8.500;2023-02-28T09:11:38;3.5;99.9
53675;DHT22;39574;50.534;8.500;2023-02-28T09:16:41;3.5;99.9
53675;DHT22;39574;50.534;8.500;2023-02-28T09:26:15;3.7;99.9
53675;DHT22;39574;50.534;8.500;2023-02-28T09:31:16;3.9;99.9
53675;DHT22;39574;50.534;8.500;2023-02-28T09:36:16;4.1;99.9
53675;DHT22;39574;50.534;8.500;2023-02-28T09:41:32;4.2;99.9
53675;DHT22;39574;50.534;8.500;2023-02-28T09:50:34;4.2;99.9
53675;DHT22;39574;50.534;8.500;2023-02-28T09:55:53;4.3;99.9
53675;DHT22;39574;50.534;8.500;2023-02-28T10:00:56;4.5;99.9
53675;DHT22;39574;50.534;8.500;2023-02-28T10:06:05;4.7;99.1
53675;DHT22;39574;50.534;8.500;2023-02-28T10:11:17;4.6;98.3
53675;DHT22;39574;50.534;8.500;2023-02-28T10:20:48;4.7;97.1
53675;DHT22;39574;50.534;8.500;2023-02-28T10:25:59;4.9;97.3
53675;DHT22;39574;50.534;8.500;2023-02-28T10:31:14;5.3;97.3
53675;DHT22;39574;50.534;8.500;2023-02-28T10:40:26;5.9;95.8
53675;DHT22;39574;50.534;8.500;2023-02-28T10:45:40;6.4;92.7
53675;DHT22;39574;50.534;8.500;2023-02-28T10:50:42;6.9;88.8
53675;DHT22;39574;50.534;8.500;2023-02-28T10:55:56;7.0;86.0
53675;DHT22;39574;50.534;8.500;2023-02-28T11:00:55;6.6;86.5
53675;DHT22;39574;50.534;8.500;2023-02-28T11:06:08;6.2;88.5
53675;DHT22;39574;50.534;8.500;2023-02-28T11:15:49;6.2;89.7
53675;DHT22;39574;50.534;8.500;2023-02-28T11:20:50;6.8;88.8
53675;DHT22;39574;50.534;8.500;2023-02-28T11:25:59;7.3;86.3
53675;DHT22;39574;50.534;8.500;2023-02-28T11:31:04;7.4;87.2
53675;DHT22;39574;50.534;8.500;2023-02-28T11:40:41;7.2;88.6
53675;DHT22;39574;50.534;8.500;2023-02-28T11:45:45;6.5;89.7
53675;DHT22;39574;50.534;8.500;2023-02-28T11:55:11;6.2;90.9
53675;DHT22;39574;50.534;8.500;2023-02-28T12:00:19;5.7;92.0
53675;DHT22;39574;50.534;8.500;2023-02-28T12:05:34;5.2;93.5
53675;DHT22;39574;50.534;8.500;2023-02-28T12:10:35;4.7;95.1
53675;DHT22;39574;50.534;8.500;2023-02-28T12:20:02;4.6;96.2
53675;DHT22;39574;50.534;8.500;2023-02-28T12:25:16;5.6;95.4
53675;DHT22;39574;50.534;8.500;2023-02-28T12:30:28;6.5;94.2
53675;DHT22;39574;50.534;8.500;2023-02-28T12:35:28;7.1;92.9
53675;DHT22;39574;50.534;8.500;2023-02-28T12:40:33;7.5;92.4
53675;DHT22;39574;50.534;8.500;2023-02-28T12:45:34;7.8;92.7
53675;DHT22;39574;50.534;8.500;2023-02-28T12:55:43;7.8;93.6
53675;DHT22;39574;50.534;8.500;2023-02-28T13:05:24;7.8;93.4
53675;DHT22;39574;50.534;8.500;2023-02-28T13:10:24;7.4;92.8
53675;DHT22;39574;50.534;8.500;2023-02-28T13:15:36;7.3;93.2
53675;DHT22;39574;50.534;8.500;2023-02-28T13:25:01;6.8;93.3
53675;DHT22;39574;50.534;8.500;2023-02-28T13:31:14;6.8;93.5
53675;DHT22;39574;50.534;8.500;2023-02-28T13:35:14;7.2;93.3
53675;DHT22;39574;50.534;8.500;2023-02-28T13:40:29;7.7;92.3
53675;DHT22;39574;50.534;8.500;2023-02-28T13:45:29;8.0;89.9
53675;DHT22;39574;50.534;8.500;2023-02-28T13:55:24;8.6;85.7
53675;DHT22;39574;50.534;8.500;2023-02-28T14:00:28;8.9;82.3
53675;DHT22;39574;50.534;8.500;2023-02-28T14:10:05;8.8;80.9
53675;DHT22;39574;50.534;8.500;2023-02-28T14:15:34;8.8;80.0
53675;DHT22;39574;50.534;8.500;2023-02-28T14:20:20;8.8;79.2
53675;DHT22;39574;50.534;8.500;2023-02-28T14:29:57;9.4;77.4
53675;DHT22;39574;50.534;8.500;2023-02-28T14:34:58;9.4;77.6
53675;DHT22;39574;50.534;8.500;2023-02-28T14:40:14;9.6;76.7
53675;DHT22;39574;50.534;8.500;2023-02-28T14:45:18;9.5;76.9
53675;DHT22;39574;50.534;8.500;2023-02-28T14:54:27;9.2;76.2
53675;DHT22;39574;50.534;8.500;2023-02-28T14:59:40;9.6;74.6
53675;DHT22;39574;50.534;8.500;2023-02-28T15:04:52;9.4;74.4
53675;DHT22;39574;50.534;8.500;2023-02-28T15:10:06;9.4;75.0
53675;DHT22;39574;50.534;8.500;2023-02-28T15:15:14;9.9;73.6
53675;DHT22;39574;50.534;8.500;2023-02-28T15:24:36;9.9;73.0
53675;DHT22;39574;50.534;8.500;2023-02-28T15:29:46;9.9;72.0
53675;DHT22;39574;50.534;8.500;2023-02-28T15:34:52;9.7;72.3
53675;DHT22;39574;50.534;8.500;2023-02-28T15:40:07;9.4;73.7
53675;DHT22;39574;50.534;8.500;2023-02-28T15:45:04;9.4;74.0
53675;DHT22;39574;50.534;8.500;2023-02-28T15:50:06;9.7;73.4
53675;DHT22;39574;50.534;8.500;2023-02-28T15:59:39;9.8;72.2
53675;DHT22;39574;50.534;8.500;2023-02-28T16:04:58;9.9;71.3
53675;DHT22;39574;50.534;8.500;2023-02-28T16:09:44;9.4;71.2
53675;DHT22;39574;50.534;8.500;2023-02-28T16:14:58;8.8;73.0
53675;DHT22;39574;50.534;8.500;2023-02-28T16:20:05;8.3;76.2
53675;DHT22;39574;50.534;8.500;2023-02-28T16:34:54;7.7;79.7
53675;DHT22;39574;50.534;8.500;2023-02-28T16:44:27;7.0;85.1
53675;DHT22;39574;50.534;8.500;2023-02-28T16:49:35;6.3;89.5
53675;DHT22;39574;50.534;8.500;2023-02-28T16:54:48;5.8;93.1
53675;DHT22;39574;50.534;8.500;2023-02-28T17:04:08;5.5;96.0
53675;DHT22;39574;50.534;8.500;2023-02-28T17:09:16;5.2;98.0
53675;DHT22;39574;50.534;8.500;2023-02-28T17:14:22;5.1;99.2
53675;DHT22;39574;50.534;8.500;2023-02-28T17:24:39;5.0;99.7
53675;DHT22;39574;50.534;8.500;2023-02-28T17:29:41;4.9;99.9
53675;DHT22;39574;50.534;8.500;2023-02-28T17:39:20;5.0;99.9
53675;DHT22;39574;50.534;8.500;2023-02-28T17:44:21;5.1;99.9
53675;DHT22;39574;50.534;8.500;2023-02-28T17:49:31;5.1;99.9
53675;DHT22;39574;50.534;8.500;2023-02-28T17:54:33;5.0;99.9
53675;DHT22;39574;50.534;8.500;2023-02-28T18:03:52;4.9;99.9
53675;DHT22;39574;50.534;8.500;2023-02-28T18:08:56;4.8;99.9
53675;DHT22;39574;50.534;8.500;2023-02-28T18:14:08;4.8;99.9
53675;DHT22;39574;50.534;8.500;2023-02-28T18:19:10;4.7;99.9
53675;DHT22;39574;50.534;8.500;2023-02-28T18:24:11;4.7;99.9
53675;DHT22;39574;50.534;8.500;2023-02-28T18:29:22;4.6;99.9
53675;DHT22;39574;50.534;8.500;2023-02-28T18:38:51;4.6;99.9
53675;DHT22;39574;50.534;8.500;2023-02-28T18:44:01;4.5;99.9
53675;DHT22;39574;50.534;8.500;2023-02-28T18:49:03;4.4;99.9
53675;DHT22;39574;50.534;8.500;2023-02-28T18:54:04;4.3;99.9
53675;DHT22;39574;50.534;8.500;2023-02-28T18:59:14;4.3;99.9
53675;DHT22;39574;50.534;8.500;2023-02-28T19:04:17;4.2;99.9
53675;DHT22;39574;50.534;8.500;2023-02-28T19:13:53;4.2;99.9
53675;DHT22;39574;50.534;8.500;2023-02-28T19:18:57;4.2;99.9
53675;DHT22;39574;50.534;8.500;2023-02-28T19:24:04;4.1;99.9
53675;DHT22;39574;50.534;8.500;2023-02-28T19:33:36;4.0;99.9
53675;DHT22;39574;50.534;8.500;2023-02-28T19:38:37;3.8;99.9
53675;DHT22;39574;50.534;8.500;2023-02-28T19:43:52;3.6;99.9
53675;DHT22;39574;50.534;8.500;2023-02-28T19:49:01;3.5;99.9
53675;DHT22;39574;50.534;8.500;2023-02-28T19:58:24;3.4;99.9
53675;DHT22;39574;50.534;8.500;2023-02-28T20:03:28;3.3;99.9
53675;DHT22;39574;50.534;8.500;2023-02-28T20:08:36;3.4;99.9
53675;DHT22;39574;50.534;8.500;2023-02-28T20:13:38;3.4;99.9
53675;DHT22;39574;50.534;8.500;2023-02-28T20:18:52;3.4;99.9
53675;DHT22;39574;50.534;8.500;2023-02-28T20:28:04;3.3;99.9
53675;DHT22;39574;50.534;8.500;2023-02-28T20:33:28;3.2;99.9
53675;DHT22;39574;50.534;8.500;2023-02-28T20:38:31;3.2;99.9
53675;DHT22;39574;50.534;8.500;2023-02-28T20:43:44;3.3;99.9
53675;DHT22;39574;50.534;8.500;2023-02-28T20:48:47;3.3;99.9
53675;DHT22;39574;50.534;8.500;2023-02-28T20:58:34;3.3;99.9
53675;DHT22;39574;50.534;8.500;2023-02-28T21:03:46;3.3;99.9
53675;DHT22;39574;50.534;8.500;2023-02-28T21:13:21;3.3;99.9
53675;DHT22;39574;50.534;8.500;2023-02-28T21:18:22;3.3;99.9
53675;DHT22;39574;50.534;8.500;2023-02-28T21:23:37;3.2;99.9
53675;DHT22;39574;50.534;8.500;2023-02-28T21:32:50;3.0;99.9
53675;DHT22;39574;50.534;8.500;2023-02-28T21:37:53;2.9;99.9
53675;DHT22;39574;50.534;8.500;2023-02-28T21:43:02;2.9;99.9
53675;DHT22;39574;50.534;8.500;2023-02-28T21:48:12;2.9;99.9
53675;DHT22;39574;50.534;8.500;2023-02-28T21:53:15;2.9;99.9
53675;DHT22;39574;50.534;8.500;2023-02-28T21:58:23;2.8;99.9
53675;DHT22;39574;50.534;8.500;2023-02-28T22:03:24;2.8;99.9
53675;DHT22;39574;50.534;8.500;2023-02-28T22:12:53;2.8;99.9
53675;DHT22;39574;50.534;8.500;2023-02-28T22:18:04;2.8;99.9
53675;DHT22;39574;50.534;8.500;2023-02-28T22:23:08;2.7;99.9
53675;DHT22;39574;50.534;8.500;2023-02-28T22:28:17;2.5;99.9
53675;DHT22;39574;50.534;8.500;2023-02-28T22:33:17;2.2;99.9
53675;DHT22;39574;50.534;8.500;2023-02-28T22:42:31;2.1;99.9
53675;DHT22;39574;50.534;8.500;2023-02-28T22:47:37;2.0;99.9
53675;DHT22;39574;50.534;8.500;2023-02-28T22:52:43;1.9;99.9
53675;DHT22;39574;50.534;8.500;2023-02-28T22:57:43;1.9;99.9
53675;DHT22;39574;50.534;8.500;2023-02-28T23:02:53;1.9;99.9
53675;DHT22;39574;50.534;8.500;2023-02-28T23:08:07;2.0;99.9
53675;DHT22;39574;50.534;8.500;2023-02-28T23:17:35;2.2;99.9
53675;DHT22;39574;50.534;8.500;2023-02-28T23:22:47;2.4;99.9
53675;DHT22;39574;50.534;8.500;2023-02-28T23:27:50;2.4;99.9
53675;DHT22;39574;50.534;8.500;2023-02-28T23:33:02;2.5;99.9
53675;DHT22;39574;50.534;8.500;2023-02-28T23:38:03;2.6;99.9
53675;DHT22;39574;50.534;8.500;2023-02-28T23:47:19;2.6;99.9
53675;DHT22;39574;50.534;8.500;2023-02-28T23:52:28;2.6;99.9
53675;DHT22;39574;50.534;8.500;2023-02-28T23:57:36;2.6;99.9
